createdAt,value
2023-01-22T00:00:30.341Z,3.20
2023-01-22T00:05:32.167Z,3.21
2023-01-22T00:10:34.001Z,3.18
2023-01-22T00:15:38.921Z,3.25
2023-01-22T00:20:41.763Z,3.20
2023-01-22T00:25:44.023Z,3.18
2023-01-22T00:30:45.935Z,3.17
2023-01-22T00:35:47.742Z,3.16
2023-01-22T00:40:49.573Z,3.16
2023-01-22T00:45:51.424Z,3.19
2023-01-22T00:50:55.343Z,3.19
2023-01-22T00:55:59.602Z,3.13
2023-01-22T01:01:03.023Z,3.14
2023-01-22T01:06:13.788Z,3.14
2023-01-22T01:11:22.141Z,3.14
2023-01-22T01:16:30.008Z,3.16
2023-01-22T01:21:34.524Z,3.19
2023-01-22T01:26:37.149Z,3.14
2023-01-22T01:31:39.328Z,3.13
2023-01-22T01:36:50.221Z,3.13
2023-01-22T01:41:53.318Z,3.11
2023-01-22T01:47:01.293Z,3.13
2023-01-22T01:52:09.468Z,3.15
2023-01-22T01:57:18.494Z,3.12
2023-01-22T02:02:20.918Z,3.11
2023-01-22T02:07:23.928Z,3.11
2023-01-22T02:12:25.886Z,3.09
2023-01-22T02:17:28.055Z,3.12
2023-01-22T02:22:32.483Z,3.15
2023-01-22T02:27:35.799Z,3.17
2023-01-22T02:32:40.330Z,3.21
2023-01-22T02:37:42.241Z,3.23
2023-01-22T02:42:44.333Z,3.22
2023-01-22T02:47:46.925Z,3.20
2023-01-22T02:52:48.781Z,3.19
2023-01-22T02:57:50.678Z,3.21
2023-01-22T03:02:52.537Z,3.23
2023-01-22T03:07:54.435Z,3.25
2023-01-22T03:13:14.952Z,3.30
2023-01-22T03:18:36.835Z,3.32
2023-01-22T03:23:38.974Z,3.33
2023-01-22T03:28:40.982Z,3.35
2023-01-22T03:33:43.762Z,3.34
2023-01-22T03:38:46.779Z,3.33
2023-01-22T03:43:53.785Z,3.36
2023-01-22T03:49:00.889Z,3.38
2023-01-22T03:54:02.801Z,3.40
2023-01-22T03:59:04.934Z,3.36
2023-01-22T04:04:08.330Z,3.38
2023-01-22T04:09:10.214Z,3.44
2023-01-22T04:14:16.358Z,3.39
2023-01-22T04:19:33.186Z,3.39
2023-01-22T04:24:37.824Z,3.42
2023-01-22T04:29:40.818Z,3.42
2023-01-22T04:34:44.637Z,3.51
2023-01-22T04:39:58.910Z,3.45
2023-01-22T04:45:00.869Z,3.40
2023-01-22T04:50:05.563Z,3.35
2023-01-22T04:55:09.721Z,3.35
2023-01-22T05:00:21.470Z,3.35
2023-01-22T05:05:23.951Z,3.39
2023-01-22T05:10:26.869Z,3.38
2023-01-22T05:15:29.022Z,3.35
2023-01-22T05:20:34.219Z,3.32
2023-01-22T05:25:37.006Z,3.31
2023-01-22T05:30:40.213Z,3.31
2023-01-22T05:36:02.681Z,3.35
2023-01-22T05:41:04.978Z,3.35
2023-01-22T05:46:11.515Z,3.35
2023-01-22T05:51:16.568Z,3.36
2023-01-22T05:56:18.905Z,3.40
2023-01-22T06:01:21.566Z,3.42
2023-01-22T06:06:26.671Z,3.45
2023-01-22T06:11:30.500Z,3.51
2023-01-22T06:16:33.112Z,3.52
2023-01-22T06:21:43.827Z,3.54
2023-01-22T06:26:46.333Z,3.57
2023-01-22T06:31:49.996Z,3.56
2023-01-22T06:36:54.156Z,3.56
2023-01-22T06:41:58.217Z,3.58
2023-01-22T06:47:00.468Z,3.54
2023-01-22T06:52:07.171Z,3.47
2023-01-22T06:57:09.059Z,3.45
2023-01-22T07:02:17.180Z,3.44
2023-01-22T07:07:19.002Z,3.42
2023-01-22T07:12:20.838Z,3.44
2023-01-22T07:17:22.661Z,3.45
2023-01-22T07:22:24.534Z,3.46
2023-01-22T07:27:27.895Z,3.48
2023-01-22T07:32:29.790Z,3.54
2023-01-22T07:37:31.633Z,3.55
2023-01-22T07:42:33.424Z,3.55
2023-01-22T07:47:35.185Z,3.54
2023-01-22T07:52:36.981Z,3.54
2023-01-22T07:57:38.802Z,3.52
2023-01-22T08:02:42.230Z,3.54
2023-01-22T08:07:44.233Z,3.54
2023-01-22T08:12:46.776Z,3.60
2023-01-22T08:17:53.326Z,3.64
2023-01-22T08:23:01.996Z,3.65
2023-01-22T08:28:05.659Z,3.64
2023-01-22T08:33:07.622Z,3.65
2023-01-22T08:38:09.408Z,3.63
2023-01-22T08:43:11.206Z,3.63
2023-01-22T08:48:13.062Z,3.64
2023-01-22T08:53:14.831Z,3.64
2023-01-22T08:58:16.592Z,3.61
2023-01-22T09:03:18.459Z,3.61
2023-01-22T09:08:20.478Z,3.63
2023-01-22T09:13:22.336Z,3.68
2023-01-22T09:18:24.288Z,3.74
2023-01-22T09:23:26.102Z,3.75
2023-01-22T09:28:27.880Z,3.74
2023-01-22T09:33:29.680Z,3.74
2023-01-22T09:38:31.441Z,3.73
2023-01-22T09:43:37.235Z,3.72
2023-01-22T09:48:47.047Z,3.73
2023-01-22T09:54:01.272Z,3.76
2023-01-22T09:59:05.994Z,3.77
2023-01-22T10:04:25.278Z,3.79
2023-01-22T10:09:31.148Z,3.83
2023-01-22T10:14:33.036Z,3.83
2023-01-22T10:19:45.639Z,3.85
2023-01-22T10:24:47.451Z,3.87
2023-01-22T10:30:01.228Z,3.89
2023-01-22T10:35:11.907Z,3.88
2023-01-22T10:40:38.165Z,3.87
2023-01-22T10:45:55.104Z,3.88
2023-01-22T10:51:12.883Z,3.89
2023-01-22T10:56:27.517Z,3.90
2023-01-22T11:01:36.000Z,3.92
2023-01-22T11:06:42.580Z,3.92
2023-01-22T11:11:55.093Z,3.90
2023-01-22T11:17:03.331Z,3.92
2023-01-22T11:22:20.842Z,3.92
2023-01-22T11:27:55.106Z,3.95
2023-01-22T11:33:06.327Z,3.95
2023-01-22T11:38:10.941Z,3.98
2023-01-22T11:43:18.987Z,3.96
2023-01-22T11:48:42.605Z,3.98
2023-01-22T11:53:58.247Z,3.99
2023-01-22T11:59:08.886Z,4.00
2023-01-22T12:04:40.229Z,4.00
2023-01-22T12:09:47.674Z,3.96
2023-01-22T12:15:24.931Z,3.95
2023-01-22T12:20:40.213Z,3.94
2023-01-22T12:25:48.805Z,3.93
2023-01-22T12:31:00.820Z,3.93
2023-01-22T12:36:05.550Z,3.89
2023-01-22T12:41:25.512Z,3.84
2023-01-22T12:46:42.825Z,3.77
2023-01-22T12:51:47.849Z,3.79
2023-01-22T12:56:51.380Z,3.76
2023-01-22T13:02:00.180Z,3.74
2023-01-22T13:07:16.931Z,3.76
2023-01-22T13:12:27.162Z,3.78
2023-01-22T13:17:30.643Z,3.79
2023-01-22T13:22:34.048Z,3.80
2023-01-22T13:27:37.510Z,3.81
2023-01-22T13:32:39.450Z,3.80
2023-01-22T13:37:44.258Z,3.75
2023-01-22T13:42:47.051Z,3.78
2023-01-22T13:47:50.817Z,3.79
2023-01-22T13:52:52.920Z,3.80
2023-01-22T13:57:57.265Z,3.76
2023-01-22T14:03:00.138Z,3.75
2023-01-22T14:08:08.150Z,3.75
2023-01-22T14:13:12.244Z,3.77
2023-01-22T14:18:16.832Z,3.74
2023-01-22T14:23:18.721Z,3.75
2023-01-22T14:28:22.430Z,3.73
2023-01-22T14:33:31.106Z,3.73
2023-01-22T14:38:33.111Z,3.70
2023-01-22T14:43:35.725Z,3.67
2023-01-22T14:48:38.675Z,3.66
2023-01-22T14:53:40.593Z,3.66
2023-01-22T14:58:42.482Z,3.68
2023-01-22T15:03:44.349Z,3.67
2023-01-22T15:08:46.266Z,3.64
2023-01-22T15:13:49.547Z,3.60
2023-01-22T15:18:54.717Z,3.57
2023-01-22T15:23:56.582Z,3.56
2023-01-22T15:28:58.429Z,3.56
2023-01-22T15:34:02.149Z,3.58
2023-01-22T15:39:04.112Z,3.61
2023-01-22T15:44:07.161Z,3.62
2023-01-22T15:49:10.870Z,3.59
2023-01-22T15:54:15.667Z,3.54
2023-01-22T15:59:18.140Z,3.50
2023-01-22T16:04:20.404Z,3.49
2023-01-22T16:09:22.512Z,3.50
2023-01-22T16:14:24.623Z,3.55
2023-01-22T16:19:27.027Z,3.56
2023-01-22T16:24:29.404Z,3.54
2023-01-22T16:29:31.757Z,3.53
2023-01-22T16:34:33.839Z,3.53
2023-01-22T16:39:36.922Z,3.53
2023-01-22T16:44:38.791Z,3.52
2023-01-22T16:49:40.693Z,3.55
2023-01-22T16:54:42.846Z,3.58
2023-01-22T16:59:45.053Z,3.61
2023-01-22T17:04:46.984Z,3.61
2023-01-22T17:09:48.922Z,3.61
2023-01-22T17:14:53.077Z,3.58
2023-01-22T17:19:55.067Z,3.59
2023-01-22T17:24:56.872Z,3.56
2023-01-22T17:29:58.789Z,3.54
2023-01-22T17:35:01.006Z,3.56
2023-01-22T17:40:03.713Z,3.54
2023-01-22T17:45:06.114Z,3.49
2023-01-22T17:50:08.863Z,3.48
2023-01-22T17:55:10.749Z,3.49
2023-01-22T18:00:13.105Z,3.55
2023-01-22T18:05:14.939Z,3.55
2023-01-22T18:10:17.481Z,3.53
2023-01-22T18:15:19.552Z,3.54
2023-01-22T18:20:21.741Z,3.56
2023-01-22T18:25:23.590Z,3.52
2023-01-22T18:30:26.852Z,3.50
2023-01-22T18:35:29.561Z,3.46
2023-01-22T18:40:32.063Z,3.48
2023-01-22T18:45:40.300Z,3.53
2023-01-22T18:50:42.513Z,3.58
2023-01-22T18:55:44.397Z,3.59
2023-01-22T19:00:46.237Z,3.62
2023-01-22T19:05:48.081Z,3.62
2023-01-22T19:10:50.269Z,3.64
2023-01-22T19:15:52.571Z,3.64
2023-01-22T19:20:54.731Z,3.64
2023-01-22T19:26:23.894Z,3.68
2023-01-22T19:31:27.617Z,3.71
2023-01-22T19:36:32.247Z,3.75
2023-01-22T19:41:34.125Z,3.76
2023-01-22T19:46:40.289Z,3.77
2023-01-22T19:51:42.277Z,3.76
2023-01-22T19:56:45.845Z,3.83
2023-01-22T20:01:48.952Z,3.87
2023-01-22T20:06:55.858Z,3.77
2023-01-22T20:11:58.740Z,3.73
2023-01-22T20:17:02.042Z,3.73
2023-01-22T20:22:07.058Z,3.72
2023-01-22T20:27:09.510Z,3.79
2023-01-22T20:32:11.432Z,3.85
2023-01-22T20:37:13.248Z,3.83
2023-01-22T20:42:15.123Z,3.82
2023-01-22T20:47:17.245Z,3.81
2023-01-22T20:52:20.058Z,3.80
2023-01-22T20:57:22.112Z,3.80
2023-01-22T21:02:24.172Z,3.81
2023-01-22T21:07:26.025Z,3.81
2023-01-22T21:12:27.870Z,3.83
2023-01-22T21:17:31.287Z,3.83
2023-01-22T21:22:33.300Z,3.85
2023-01-22T21:27:35.202Z,3.84
2023-01-22T21:32:37.074Z,3.86
2023-01-22T21:37:38.912Z,3.86
2023-01-22T21:43:00.222Z,3.87
2023-01-22T21:48:02.067Z,3.86
2023-01-22T21:53:03.906Z,3.85
2023-01-22T21:58:08.549Z,3.87
2023-01-22T22:03:10.784Z,3.89
2023-01-22T22:08:12.629Z,3.90
2023-01-22T22:13:14.457Z,3.94
2023-01-22T22:18:16.281Z,3.94
2023-01-22T22:23:18.155Z,3.93
2023-01-22T22:28:19.997Z,3.92
2023-01-22T22:33:21.809Z,3.89
2023-01-22T22:38:23.666Z,3.91
2023-01-22T22:43:25.790Z,3.93
2023-01-22T22:48:27.885Z,3.95
2023-01-22T22:53:29.770Z,3.99
2023-01-22T22:58:32.223Z,3.99
2023-01-22T23:03:37.109Z,3.94
2023-01-22T23:08:40.682Z,3.89
2023-01-22T23:13:48.729Z,3.89
2023-01-22T23:18:51.972Z,3.86
2023-01-22T23:23:54.941Z,3.87
2023-01-22T23:29:00.615Z,3.86
2023-01-22T23:34:04.679Z,3.85
2023-01-22T23:39:06.611Z,3.86
2023-01-22T23:44:08.541Z,3.86
2023-01-22T23:49:10.854Z,3.86
2023-01-22T23:54:13.069Z,3.83
2023-01-22T23:59:14.922Z,3.82
